createdAt,value
2022-11-20T07:28:43.905Z,96756.63
2022-11-20T07:31:29.066Z,96760.09
2022-11-20T07:34:13.921Z,96765.72
2022-11-20T07:36:58.809Z,96759.25
2022-11-20T07:39:43.688Z,96756.91
2022-11-20T07:42:28.555Z,96758.25
2022-11-20T07:45:13.556Z,96749.97
2022-11-20T07:47:58.453Z,96759.03
2022-11-20T07:50:43.444Z,96761.50
2022-11-20T07:53:28.294Z,96755.25
2022-11-20T07:56:13.090Z,96763.41
2022-11-20T07:58:57.888Z,96768.28
2022-11-20T08:01:42.749Z,96768.50
2022-11-20T08:04:27.807Z,96773.84
2022-11-20T08:07:12.835Z,96770.41
2022-11-20T08:09:58.273Z,96775.16
2022-11-20T08:12:43.279Z,96774.81
2022-11-20T08:15:28.183Z,96771.44
2022-11-20T08:18:30.758Z,96778.31
2022-11-20T08:21:16.912Z,96773.75
2022-11-20T08:24:01.951Z,96784.09
2022-11-20T08:26:46.763Z,96784.19
2022-11-20T08:29:31.672Z,96786.97
2022-11-20T08:32:16.425Z,96785.03
2022-11-20T08:35:01.298Z,96783.03
2022-11-20T08:37:46.160Z,96787.00
2022-11-20T08:40:31.166Z,96782.56
2022-11-20T08:57:20.537Z,96782.34
2022-11-20T09:00:06.896Z,96786.19
2022-11-20T09:02:52.274Z,96785.94
2022-11-20T09:05:37.289Z,96787.44
2022-11-20T09:08:22.080Z,96790.44
2022-11-20T09:11:06.974Z,96787.06
2022-11-20T09:15:29.318Z,96798.47
2022-11-20T09:18:14.535Z,96801.72
2022-11-20T09:20:59.453Z,96803.38
2022-11-20T09:23:44.780Z,96806.47
2022-11-20T09:26:29.852Z,96803.59
2022-11-20T09:29:14.799Z,96803.47
2022-11-20T09:31:59.738Z,96803.88
2022-11-20T09:34:44.599Z,96797.06
2022-11-20T09:37:29.448Z,96800.91
2022-11-20T09:40:14.493Z,96803.13
2022-11-20T09:42:59.793Z,96805.53
2022-11-20T09:45:44.640Z,96808.59
2022-11-20T09:48:29.527Z,96802.84
2022-11-20T09:51:14.596Z,96809.47
2022-11-20T09:53:59.526Z,96801.47
2022-11-20T09:56:44.541Z,96796.16
2022-11-20T09:59:29.359Z,96803.72
2022-11-20T10:02:14.365Z,96802.22
2022-11-20T10:04:59.225Z,96811.69
2022-11-20T10:07:44.279Z,96810.78
2022-11-20T10:10:29.123Z,96818.78
2022-11-20T10:13:13.983Z,96809.41
2022-11-20T10:15:58.874Z,96805.03
2022-11-20T10:18:43.718Z,96808.75
2022-11-20T10:21:28.647Z,96805.41
2022-11-20T10:24:13.463Z,96808.19
2022-11-20T10:26:58.435Z,96804.59
2022-11-20T10:29:43.278Z,96803.09
2022-11-20T10:32:28.216Z,96800.31
2022-11-20T10:35:13.203Z,96797.19
2022-11-20T10:37:58.097Z,96800.09
2022-11-20T10:40:43.015Z,96799.28
2022-11-20T10:43:27.827Z,96801.03
2022-11-20T10:46:12.735Z,96799.97
2022-11-20T10:48:57.533Z,96797.19
